Time;durP1;ratioP1;P1;durP2;ratioP2;P2;SDS_P1;SDS_P2;PMS_P1;PMS_P2;Temp;Humidity;BMP_temperature;BMP_pressure;BME280_temperature;BME280_humidity;BME280_pressure;Samples;Min_cycle;Max_cycle;Signal;HPM_P1;HPM_P2
2023/08/27 00:00:37;;;;;;;3.05;2.05;;;9.90;99.90;;;;;;5017013;28;20029;-89
2023/08/27 00:03:04;;;;;;;3.83;2.33;;;9.90;99.90;;;;;;4997649;28;20080;-89
2023/08/27 00:05:29;;;;;;;3.45;2.40;;;9.80;99.90;;;;;;5014476;28;20038;-89
2023/08/27 00:07:55;;;;;;;3.08;1.70;;;9.80;99.90;;;;;;5013951;28;20077;-89
2023/08/27 00:10:20;;;;;;;3.95;2.95;;;9.80;99.90;;;;;;5014523;28;20030;-88
2023/08/27 00:12:46;;;;;;;3.50;2.22;;;9.70;99.90;;;;;;4996421;28;20022;-89
2023/08/27 00:15:12;;;;;;;3.50;2.10;;;9.70;99.90;;;;;;4997205;28;20030;-88
2023/08/27 00:17:38;;;;;;;6.90;3.00;;;9.70;99.90;;;;;;4997149;28;20026;-89
2023/08/27 00:20:06;;;;;;;2.85;2.22;;;9.60;99.90;;;;;;4996824;28;20036;-90
2023/08/27 00:22:32;;;;;;;5.55;2.17;;;9.60;99.90;;;;;;5014405;28;20026;-89
2023/08/27 00:24:58;;;;;;;2.65;2.28;;;9.60;99.90;;;;;;5018327;28;20085;-88
2023/08/27 00:27:23;;;;;;;3.85;2.47;;;9.60;99.90;;;;;;5018457;28;20548;-90
2023/08/27 00:29:49;;;;;;;4.25;2.50;;;9.60;99.90;;;;;;4998721;28;20022;-89
2023/08/27 00:32:15;;;;;;;2.78;2.00;;;9.60;99.90;;;;;;4996787;28;20033;-89
2023/08/27 00:34:41;;;;;;;3.60;2.40;;;9.60;99.90;;;;;;4996554;28;20045;-90
2023/08/27 00:37:06;;;;;;;3.90;2.50;;;9.60;99.90;;;;;;5013060;28;20026;-88
2023/08/27 00:39:32;;;;;;;4.93;2.20;;;9.60;99.90;;;;;;5013888;28;20022;-89
2023/08/27 00:41:57;;;;;;;2.38;1.92;;;9.60;99.90;;;;;;4996361;28;20030;-90
2023/08/27 00:44:23;;;;;;;2.47;2.08;;;9.60;99.90;;;;;;4996611;28;20045;-89
2023/08/27 00:46:50;;;;;;;3.38;2.20;;;9.60;99.90;;;;;;5013674;28;20112;-90
2023/08/27 00:49:16;;;;;;;3.83;2.40;;;9.60;99.90;;;;;;4995802;28;20037;-90
2023/08/27 00:51:46;;;;;;;3.50;2.60;;;9.60;99.90;;;;;;4996313;28;20045;-89
2023/08/27 00:54:12;;;;;;;4.32;2.80;;;9.50;99.90;;;;;;5013889;28;20526;-88
2023/08/27 00:56:41;;;;;;;5.57;3.20;;;9.50;99.90;;;;;;4996484;28;20129;-90
2023/08/27 00:59:07;;;;;;;3.70;2.92;;;9.50;99.90;;;;;;5013729;28;20495;-89
2023/08/27 01:01:32;;;;;;;4.30;3.25;;;9.50;99.90;;;;;;5013030;28;20060;-89
2023/08/27 01:03:58;;;;;;;4.05;3.10;;;9.40;99.90;;;;;;5013120;28;20037;-87
2023/08/27 01:06:24;;;;;;;4.72;2.88;;;9.40;99.90;;;;;;4995984;28;20030;-88
2023/08/27 01:09:12;;;;;;;4.97;3.28;;;9.40;99.90;;;;;;4995784;28;20049;-89
2023/08/27 01:12:09;;;;;;;6.10;3.20;;;9.30;99.90;;;;;;5013459;28;20025;-89
2023/08/27 01:14:36;;;;;;;4.28;2.85;;;9.30;99.90;;;;;;5012972;28;20040;-87
2023/08/27 01:17:06;;;;;;;3.45;2.67;;;9.20;99.90;;;;;;5013085;28;20026;-87
2023/08/27 01:19:34;;;;;;;3.85;3.03;;;9.20;99.90;;;;;;5013809;28;20057;-89
2023/08/27 01:21:59;;;;;;;2.75;2.28;;;9.20;99.90;;;;;;5013306;28;20044;-89
2023/08/27 01:24:25;;;;;;;4.28;2.60;;;9.10;99.90;;;;;;4996184;28;20022;-90
2023/08/27 01:26:54;;;;;;;5.25;2.60;;;9.10;99.90;;;;;;4996287;28;20061;-88
2023/08/27 01:29:41;;;;;;;7.03;2.88;;;9.00;99.90;;;;;;4996640;28;20026;-89
2023/08/27 01:32:29;;;;;;;6.78;3.00;;;9.00;99.90;;;;;;4995637;28;20033;-89
2023/08/27 01:34:56;;;;;;;3.83;2.80;;;8.90;99.90;;;;;;4996040;28;20057;-89
2023/08/27 01:37:22;;;;;;;5.55;3.33;;;8.90;99.90;;;;;;5013881;28;20064;-88
2023/08/27 01:40:01;;;;;;;3.58;2.78;;;8.90;99.90;;;;;;5013817;28;20278;-89
2023/08/27 01:42:27;;;;;;;4.07;2.80;;;8.90;99.90;;;;;;5013412;28;20026;-88
2023/08/27 01:44:55;;;;;;;5.20;3.00;;;8.80;99.90;;;;;;4996062;28;20021;-88
2023/08/27 01:47:20;;;;;;;9.95;6.43;;;8.70;99.90;;;;;;4995807;28;20046;-89
2023/08/27 01:49:46;;;;;;;5.63;2.83;;;8.70;99.90;;;;;;4999628;28;20388;-88
2023/08/27 01:52:12;;;;;;;3.78;2.95;;;8.70;99.90;;;;;;4999461;28;20030;-88
2023/08/27 01:54:37;;;;;;;4.95;3.40;;;8.60;99.90;;;;;;4999997;28;20066;-89
2023/08/27 01:57:03;;;;;;;6.43;3.38;;;8.60;99.90;;;;;;5017343;28;20022;-90
2023/08/27 01:59:29;;;;;;;6.35;3.22;;;8.60;99.90;;;;;;4999462;28;20033;-88
2023/08/27 02:01:54;;;;;;;4.20;3.10;;;8.60;99.90;;;;;;5016823;28;20526;-87
2023/08/27 02:04:20;;;;;;;4.15;2.95;;;8.60;99.90;;;;;;5003954;28;20487;-89
2023/08/27 02:06:46;;;;;;;4.10;3.38;;;8.50;99.90;;;;;;5002604;28;20029;-89
2023/08/27 02:09:11;;;;;;;4.90;2.90;;;8.40;99.90;;;;;;5020968;28;20105;-89
2023/08/27 02:11:37;;;;;;;4.43;3.00;;;8.40;99.90;;;;;;5018518;28;20056;-89
2023/08/27 02:14:03;;;;;;;5.35;3.47;;;8.40;99.90;;;;;;4999088;28;20065;-89
2023/08/27 02:16:29;;;;;;;4.30;2.65;;;8.40;99.90;;;;;;4998653;28;20050;-89
2023/08/27 02:18:55;;;;;;;10.77;3.85;;;8.40;99.90;;;;;;4999227;28;20440;-88
2023/08/27 02:21:21;;;;;;;5.07;3.60;;;8.40;99.90;;;;;;5016670;28;20415;-87
2023/08/27 02:23:46;;;;;;;5.32;3.47;;;8.40;99.90;;;;;;5015312;28;20034;-87
2023/08/27 02:26:12;;;;;;;5.50;3.80;;;8.40;99.90;;;;;;5015660;28;20045;-89
2023/08/27 02:28:37;;;;;;;4.03;3.25;;;8.40;99.90;;;;;;4998522;28;20022;-89
2023/08/27 02:31:05;;;;;;;4.60;3.55;;;8.40;99.90;;;;;;5015622;28;20028;-88
2023/08/27 02:33:30;;;;;;;6.13;3.90;;;8.40;99.90;;;;;;5015915;28;20092;-88
2023/08/27 02:35:56;;;;;;;5.07;3.58;;;8.30;99.90;;;;;;4998546;28;20034;-88
2023/08/27 02:38:22;;;;;;;4.88;3.53;;;8.30;99.90;;;;;;4998998;28;20045;-89
2023/08/27 02:40:47;;;;;;;3.58;3.20;;;8.30;99.90;;;;;;5003180;28;20061;-88
2023/08/27 02:43:14;;;;;;;5.90;4.38;;;8.20;99.90;;;;;;4999507;28;20069;-88
2023/08/27 02:45:40;;;;;;;5.10;3.50;;;8.20;99.90;;;;;;4997799;28;20053;-88
2023/08/27 02:48:06;;;;;;;4.78;3.80;;;8.10;99.90;;;;;;5015680;28;20061;-89
2023/08/27 02:50:31;;;;;;;6.05;4.32;;;8.10;99.90;;;;;;4998351;28;20069;-88
2023/08/27 02:52:57;;;;;;;7.03;4.15;;;8.10;99.90;;;;;;5015747;28;20038;-87
2023/08/27 02:55:22;;;;;;;4.47;3.75;;;8.10;99.90;;;;;;4997416;28;20041;-87
2023/08/27 02:57:48;;;;;;;13.18;3.88;;;8.10;99.90;;;;;;5015041;28;20168;-87
2023/08/27 03:00:14;;;;;;;3.78;3.15;;;8.00;99.90;;;;;;4997235;28;20034;-88
2023/08/27 03:02:40;;;;;;;8.32;3.65;;;7.90;99.90;;;;;;5014702;28;20050;-87
2023/08/27 03:05:06;;;;;;;5.57;3.50;;;7.90;99.90;;;;;;5015100;28;20099;-88
2023/08/27 03:07:32;;;;;;;4.78;3.10;;;7.80;99.90;;;;;;4997678;28;20533;-89
2023/08/27 03:09:57;;;;;;;11.57;4.03;;;7.80;99.90;;;;;;5016240;28;20487;-87
2023/08/27 03:12:23;;;;;;;14.27;3.95;;;7.80;99.90;;;;;;4998576;28;20029;-87
2023/08/27 03:14:49;;;;;;;21.40;4.13;;;7.80;99.90;;;;;;5000140;28;20030;-86
2023/08/27 03:17:14;;;;;;;16.27;4.53;;;7.80;99.90;;;;;;5016545;28;20029;-87
2023/08/27 03:19:40;;;;;;;5.43;3.45;;;7.80;99.90;;;;;;5016445;28;20030;-88
2023/08/27 03:22:06;;;;;;;7.50;3.50;;;7.80;99.90;;;;;;5016447;28;20491;-87
2023/08/27 03:24:32;;;;;;;4.55;3.53;;;7.80;99.90;;;;;;5015919;28;20180;-87
2023/08/27 03:26:58;;;;;;;5.45;3.97;;;7.80;99.90;;;;;;4998213;28;20084;-87
2023/08/27 03:29:23;;;;;;;5.50;3.83;;;7.80;99.90;;;;;;4997903;28;20025;-88
2023/08/27 03:31:50;;;;;;;6.47;3.88;;;7.90;99.90;;;;;;5015084;28;20025;-88
2023/08/27 03:34:16;;;;;;;5.30;3.72;;;7.90;99.90;;;;;;5015137;28;20030;-88
2023/08/27 03:36:41;;;;;;;6.22;3.65;;;7.90;99.90;;;;;;4997747;28;20169;-89
2023/08/27 03:39:08;;;;;;;6.93;3.63;;;7.90;99.90;;;;;;5014213;28;20030;-88
2023/08/27 03:41:34;;;;;;;6.10;3.55;;;7.80;99.90;;;;;;4997258;28;20030;-88
2023/08/27 03:44:00;;;;;;;9.80;3.83;;;7.80;99.90;;;;;;5014699;28;20065;-88
2023/08/27 03:46:25;;;;;;;5.68;3.75;;;7.80;99.90;;;;;;5014302;28;20069;-87
2023/08/27 03:48:51;;;;;;;8.48;4.68;;;7.80;99.90;;;;;;5014126;28;20080;-88
2023/08/27 03:51:17;;;;;;;4.97;3.33;;;7.90;99.90;;;;;;5014375;28;20392;-87
2023/08/27 03:53:42;;;;;;;4.13;3.03;;;7.90;99.90;;;;;;5014399;28;20117;-88
2023/08/27 03:56:08;;;;;;;10.77;3.22;;;7.90;99.90;;;;;;4996996;28;20033;-88
2023/08/27 03:58:34;;;;;;;8.98;3.17;;;7.80;99.90;;;;;;4997177;28;20030;-89
2023/08/27 04:00:59;;;;;;;7.57;3.35;;;7.80;99.90;;;;;;4996732;28;20034;-88
2023/08/27 04:03:25;;;;;;;20.00;3.83;;;7.70;99.90;;;;;;5013749;28;20480;-88
2023/08/27 04:05:51;;;;;;;6.75;3.78;;;7.70;99.90;;;;;;4996357;28;20431;-88
2023/08/27 04:08:17;;;;;;;5.40;3.47;;;7.60;99.90;;;;;;5013871;28;20438;-88
2023/08/27 04:10:53;;;;;;;6.30;3.72;;;7.60;99.90;;;;;;4995998;28;20022;-88
2023/08/27 04:13:19;;;;;;;5.18;3.70;;;7.70;99.90;;;;;;5014466;28;20041;-88
2023/08/27 04:16:17;;;;;;;5.65;3.72;;;7.70;99.90;;;;;;5014018;28;20056;-88
2023/08/27 04:18:43;;;;;;;6.13;4.07;;;7.80;99.90;;;;;;4970766;28;20041;-89
2023/08/27 04:21:09;;;;;;;7.28;4.50;;;7.80;99.90;;;;;;5014775;28;20029;-89
2023/08/27 04:23:34;;;;;;;6.43;4.10;;;7.90;99.90;;;;;;4997173;28;20071;-89
2023/08/27 04:26:03;;;;;;;5.55;3.67;;;8.00;99.90;;;;;;5013806;28;20483;-88
2023/08/27 04:28:31;;;;;;;5.68;3.85;;;8.10;99.90;;;;;;5014035;28;20028;-88
2023/08/27 04:30:57;;;;;;;5.88;3.80;;;8.10;99.90;;;;;;4996489;28;20052;-88
2023/08/27 04:33:23;;;;;;;5.85;3.90;;;8.10;99.90;;;;;;4996575;28;20042;-89
2023/08/27 04:35:52;;;;;;;7.80;4.07;;;8.10;99.90;;;;;;4996331;28;20025;-89
2023/08/27 04:38:18;;;;;;;5.90;3.78;;;8.10;99.90;;;;;;5013774;28;20394;-89
2023/08/27 04:40:43;;;;;;;5.43;3.90;;;8.10;99.90;;;;;;4996235;28;20028;-88
2023/08/27 04:43:09;;;;;;;6.60;4.05;;;8.10;99.90;;;;;;5013934;28;20030;-88
2023/08/27 04:45:35;;;;;;;5.32;3.60;;;8.10;99.90;;;;;;4995505;28;20050;-88
2023/08/27 04:48:00;;;;;;;6.65;3.78;;;8.20;99.90;;;;;;4995658;28;20487;-89
2023/08/27 04:50:26;;;;;;;5.95;3.90;;;8.20;99.90;;;;;;5014421;28;20030;-89
2023/08/27 04:52:51;;;;;;;6.70;4.10;;;8.30;99.90;;;;;;4997820;28;20030;-89
2023/08/27 04:55:18;;;;;;;5.53;4.00;;;8.40;99.90;;;;;;4999219;28;20117;-88
2023/08/27 04:57:43;;;;;;;6.30;4.32;;;8.40;99.90;;;;;;5016441;28;20014;-88
2023/08/27 05:00:19;;;;;;;6.72;4.07;;;8.40;99.90;;;;;;5015545;28;20031;-89
2023/08/27 05:02:46;;;;;;;5.20;3.55;;;8.40;99.90;;;;;;5012953;28;20041;-89
2023/08/27 05:05:12;;;;;;;5.88;3.83;;;8.40;99.90;;;;;;4995383;28;20037;-88
2023/08/27 05:07:37;;;;;;;8.75;3.70;;;8.40;99.90;;;;;;4995528;28;20022;-89
2023/08/27 05:10:03;;;;;;;10.02;4.45;;;8.40;99.90;;;;;;5012643;28;20025;-89
2023/08/27 05:12:29;;;;;;;6.70;4.32;;;8.30;99.90;;;;;;4995546;28;20517;-88
2023/08/27 05:14:54;;;;;;;5.75;3.95;;;8.40;99.90;;;;;;4995287;28;20034;-88
2023/08/27 05:17:20;;;;;;;9.85;3.60;;;8.40;99.90;;;;;;4994839;28;20026;-89
2023/08/27 05:19:45;;;;;;;6.03;4.00;;;8.50;99.90;;;;;;4994913;28;20120;-88
2023/08/27 05:22:11;;;;;;;7.40;3.92;;;8.50;99.90;;;;;;5012461;28;20057;-89
2023/08/27 05:24:37;;;;;;;5.72;4.00;;;8.60;99.90;;;;;;5015844;28;20022;-89
2023/08/27 05:27:03;;;;;;;5.00;3.72;;;8.60;99.90;;;;;;5016331;28;20387;-87
2023/08/27 05:29:29;;;;;;;6.80;4.03;;;8.70;99.90;;;;;;4998905;28;20120;-89
2023/08/27 05:31:55;;;;;;;7.13;3.65;;;8.70;99.90;;;;;;5016387;28;20034;-88
2023/08/27 05:34:21;;;;;;;6.07;4.00;;;8.80;99.90;;;;;;4998961;28;20038;-88
2023/08/27 05:36:46;;;;;;;6.00;3.85;;;8.90;99.90;;;;;;4998995;28;20121;-89
2023/08/27 05:39:14;;;;;;;6.70;3.67;;;8.90;99.90;;;;;;5015997;28;20096;-89
2023/08/27 05:41:40;;;;;;;6.00;3.97;;;8.90;99.90;;;;;;5016360;28;20471;-88
2023/08/27 05:44:06;;;;;;;7.13;4.38;;;9.00;99.90;;;;;;5016252;28;20033;-87
2023/08/27 05:46:32;;;;;;;6.70;3.97;;;9.00;99.90;;;;;;4999067;28;20082;-88
2023/08/27 05:48:57;;;;;;;4.22;3.30;;;9.10;99.90;;;;;;5015919;28;20077;-88
2023/08/27 05:51:23;;;;;;;5.05;3.42;;;9.10;99.90;;;;;;4999710;28;20033;-88
2023/08/27 05:53:48;;;;;;;7.07;4.20;;;9.10;99.90;;;;;;5014899;28;20041;-88
2023/08/27 05:56:14;;;;;;;6.72;3.95;;;9.20;99.90;;;;;;4998229;28;20507;-86
2023/08/27 05:58:40;;;;;;;6.22;3.80;;;9.20;99.90;;;;;;4998014;28;20033;-88
2023/08/27 06:01:06;;;;;;;5.47;3.67;;;9.20;99.90;;;;;;4996083;28;20069;-88
2023/08/27 06:03:32;;;;;;;6.47;3.70;;;9.20;99.90;;;;;;5006661;28;20078;-88
2023/08/27 06:05:57;;;;;;;5.72;3.92;;;9.20;99.90;;;;;;4994772;28;20077;-88
2023/08/27 06:08:23;;;;;;;6.43;3.95;;;9.30;99.90;;;;;;4997233;28;20033;-87
2023/08/27 06:10:49;;;;;;;7.68;3.67;;;9.30;99.90;;;;;;4992438;28;20026;-87
2023/08/27 06:13:14;;;;;;;4.53;3.55;;;9.30;99.90;;;;;;4992389;28;20057;-88
2023/08/27 06:15:42;;;;;;;7.13;4.10;;;9.40;99.90;;;;;;5009002;28;20418;-87
2023/08/27 06:18:08;;;;;;;5.15;3.25;;;9.40;99.90;;;;;;5015198;28;20210;-87
2023/08/27 06:20:34;;;;;;;7.30;3.88;;;9.40;99.90;;;;;;5013845;28;20029;-88
2023/08/27 06:23:02;;;;;;;6.60;4.10;;;9.40;99.90;;;;;;5014733;28;20033;-87
2023/08/27 06:25:28;;;;;;;5.80;3.47;;;9.40;99.90;;;;;;4997474;28;20025;-88
2023/08/27 06:27:55;;;;;;;6.82;3.63;;;9.40;99.90;;;;;;5014977;28;20100;-88
2023/08/27 06:30:22;;;;;;;6.38;4.20;;;9.50;99.90;;;;;;5008842;28;20029;-89
2023/08/27 06:32:48;;;;;;;6.93;4.13;;;9.50;99.90;;;;;;4997554;28;20121;-88
2023/08/27 06:35:13;;;;;;;7.45;4.57;;;9.60;99.90;;;;;;4996225;28;20249;-87
2023/08/27 06:37:39;;;;;;;9.55;5.40;;;9.70;99.90;;;;;;5019242;28;20090;-87
2023/08/27 06:40:05;;;;;;;9.95;5.18;;;9.80;99.90;;;;;;5004889;28;20030;-87
2023/08/27 06:42:31;;;;;;;9.48;5.80;;;9.90;99.90;;;;;;5003776;28;20169;-88
2023/08/27 06:44:57;;;;;;;11.40;6.15;;;10.00;99.90;;;;;;5019324;28;20049;-86
2023/08/27 06:47:22;;;;;;;8.88;5.13;;;10.10;99.90;;;;;;5018003;28;20022;-87
2023/08/27 06:49:51;;;;;;;10.45;5.68;;;10.20;99.90;;;;;;5014897;28;20148;-87
2023/08/27 06:52:18;;;;;;;9.90;4.78;;;10.20;99.90;;;;;;4997675;28;20026;-87
2023/08/27 06:54:43;;;;;;;7.18;4.50;;;10.20;99.90;;;;;;5014664;28;20026;-87
2023/08/27 06:57:09;;;;;;;8.77;4.38;;;10.20;99.90;;;;;;4997549;28;20029;-88
2023/08/27 06:59:36;;;;;;;8.00;5.00;;;10.20;99.90;;;;;;4998313;28;20022;-87
2023/08/27 07:02:03;;;;;;;7.18;4.72;;;10.20;99.90;;;;;;4987189;28;20522;-87
2023/08/27 07:04:29;;;;;;;8.02;4.93;;;10.30;99.90;;;;;;5015639;28;20494;-87
2023/08/27 07:06:54;;;;;;;7.85;4.78;;;10.30;99.90;;;;;;4998412;28;20018;-89
2023/08/27 07:09:22;;;;;;;9.20;5.53;;;10.40;99.90;;;;;;4999374;28;20072;-88
2023/08/27 07:11:47;;;;;;;17.20;10.75;;;10.40;99.90;;;;;;5009651;28;20017;-89
2023/08/27 07:14:13;;;;;;;11.50;6.55;;;10.50;99.90;;;;;;5016041;28;20088;-88
2023/08/27 07:16:39;;;;;;;13.50;7.18;;;10.50;99.90;;;;;;5014480;28;20026;-89
2023/08/27 07:19:05;;;;;;;13.50;6.85;;;10.60;99.90;;;;;;5014410;28;20064;-88
2023/08/27 07:21:30;;;;;;;11.57;6.07;;;10.70;99.90;;;;;;4997246;28;20056;-89
2023/08/27 07:23:56;;;;;;;9.50;6.00;;;10.80;99.90;;;;;;5014797;28;20120;-89
2023/08/27 07:26:22;;;;;;;11.65;6.22;;;10.90;99.90;;;;;;4997323;28;20144;-88
2023/08/27 07:28:48;;;;;;;16.65;6.75;;;11.00;99.90;;;;;;4997079;28;20113;-89
2023/08/27 07:31:13;;;;;;;9.85;5.85;;;11.10;99.90;;;;;;4997135;28;20098;-89
2023/08/27 07:33:39;;;;;;;11.18;6.50;;;11.20;99.90;;;;;;5010426;28;20038;-89
2023/08/27 07:36:05;;;;;;;11.52;6.35;;;11.30;99.90;;;;;;5012891;28;20030;-88
2023/08/27 07:38:30;;;;;;;11.63;5.90;;;11.40;99.90;;;;;;4994881;28;20033;-89
2023/08/27 07:40:56;;;;;;;10.70;6.28;;;11.50;99.90;;;;;;4995615;28;20022;-89
2023/08/27 07:43:22;;;;;;;11.60;6.40;;;11.60;99.90;;;;;;5011859;28;20036;-89
2023/08/27 07:45:48;;;;;;;11.57;5.25;;;11.70;99.90;;;;;;5010694;28;20042;-90
2023/08/27 07:48:13;;;;;;;6.78;4.10;;;11.80;99.90;;;;;;4993190;28;20038;-89
2023/08/27 07:50:39;;;;;;;10.40;4.30;;;12.00;99.90;;;;;;4992188;28;20053;-89
2023/08/27 07:53:05;;;;;;;7.30;4.03;;;12.10;99.90;;;;;;5013899;28;20528;-89
2023/08/27 07:55:34;;;;;;;10.35;3.25;;;12.30;99.90;;;;;;4998056;28;20038;-91
2023/08/27 07:58:00;;;;;;;5.68;2.83;;;12.40;99.90;;;;;;4996849;28;20170;-90
2023/08/27 08:00:26;;;;;;;4.10;2.25;;;12.50;99.90;;;;;;5014007;28;20539;-90
2023/08/27 08:02:51;;;;;;;2.08;1.70;;;12.60;99.90;;;;;;5014021;28;20033;-90
2023/08/27 08:05:17;;;;;;;3.78;1.85;;;12.70;99.90;;;;;;4996685;28;20037;-90
2023/08/27 08:07:42;;;;;;;1.27;0.90;;;12.80;99.90;;;;;;5015572;28;20054;-89
2023/08/27 08:10:08;;;;;;;1.17;0.60;;;12.90;99.90;;;;;;5018564;28;20036;-89
2023/08/27 08:12:34;;;;;;;2.83;0.90;;;13.00;99.90;;;;;;5015249;28;20014;-89
2023/08/27 08:15:00;;;;;;;1.13;0.63;;;13.10;99.90;;;;;;4997286;28;20076;-90
2023/08/27 08:17:26;;;;;;;0.73;0.60;;;13.10;99.90;;;;;;5001242;28;20022;-90
2023/08/27 08:19:52;;;;;;;0.40;0.40;;;13.20;99.90;;;;;;4999872;28;20496;-90
2023/08/27 08:22:17;;;;;;;0.40;0.40;;;13.20;99.90;;;;;;5014904;28;20033;-90
2023/08/27 08:24:43;;;;;;;0.70;0.40;;;13.40;99.90;;;;;;5031094;28;20077;-90
2023/08/27 08:27:09;;;;;;;0.30;0.30;;;13.40;99.90;;;;;;5027494;28;20037;-90
2023/08/27 08:29:34;;;;;;;0.20;0.20;;;13.40;99.90;;;;;;5008412;28;20017;-90
2023/08/27 08:32:01;;;;;;;0.40;0.30;;;13.50;99.90;;;;;;5007271;28;20036;-90
2023/08/27 08:34:30;;;;;;;0.40;0.32;;;13.60;99.90;;;;;;5013761;28;20072;-90
2023/08/27 08:36:56;;;;;;;0.30;0.30;;;13.60;99.90;;;;;;5016079;28;20036;-90
2023/08/27 08:39:24;;;;;;;0.47;0.30;;;13.70;99.90;;;;;;5033703;28;20030;-89
2023/08/27 08:42:05;;;;;;;0.90;0.85;;;13.80;99.90;;;;;;5033947;28;20021;-90
2023/08/27 08:44:52;;;;;;;;;;;13.80;99.90;;;;;;5033887;28;20017;-90
2023/08/27 08:47:21;;;;;;;0.22;0.22;;;14.00;99.90;;;;;;5016571;28;19917;-91
2023/08/27 08:49:54;;;;;;;1.00;0.20;;;14.00;99.90;;;;;;5032507;28;20022;-90
2023/08/27 08:52:24;;;;;;;2.00;0.30;;;14.10;99.90;;;;;;5001572;28;20022;-90
2023/08/27 08:54:53;;;;;;;1.05;0.30;;;14.10;99.90;;;;;;5012535;28;20046;-89
2023/08/27 08:57:19;;;;;;;0.47;0.30;;;14.10;99.90;;;;;;5000014;28;20026;-90
2023/08/27 08:59:47;;;;;;;0.85;0.40;;;14.10;99.90;;;;;;4995425;28;20018;-90
2023/08/27 09:02:14;;;;;;;1.02;0.55;;;14.10;99.90;;;;;;4994397;28;20028;-88
2023/08/27 09:04:41;;;;;;;0.95;0.63;;;14.20;99.90;;;;;;4994611;28;20125;-88
2023/08/27 09:07:08;;;;;;;1.05;0.77;;;14.20;99.90;;;;;;4994753;28;20086;-90
2023/08/27 09:09:34;;;;;;;1.85;0.60;;;14.20;99.90;;;;;;5005635;28;20105;-89
2023/08/27 09:12:01;;;;;;;1.25;0.40;;;14.20;99.90;;;;;;5003261;28;20053;-89
2023/08/27 09:14:29;;;;;;;0.43;0.40;;;14.30;99.90;;;;;;4994661;28;20099;-88
2023/08/27 09:16:55;;;;;;;0.30;0.30;;;14.30;99.90;;;;;;5009496;28;20021;-89
2023/08/27 09:19:21;;;;;;;1.75;0.35;;;14.30;99.90;;;;;;5011706;28;20108;-89
2023/08/27 09:21:46;;;;;;;1.95;0.40;;;14.40;99.90;;;;;;5011959;28;20018;-88
2023/08/27 09:24:12;;;;;;;0.40;0.40;;;14.40;99.90;;;;;;4995264;28;20022;-88
2023/08/27 09:26:41;;;;;;;1.70;0.50;;;14.50;99.90;;;;;;4995290;28;20029;-90
2023/08/27 09:29:08;;;;;;;0.13;0.10;;;14.50;99.90;;;;;;4994133;28;20108;-89
2023/08/27 09:31:38;;;;;;;0.10;0.10;;;14.60;99.90;;;;;;5011790;28;20124;-89
2023/08/27 09:34:04;;;;;;;0.35;0.20;;;14.60;99.90;;;;;;4998689;28;20032;-88
2023/08/27 09:36:32;;;;;;;0.65;0.25;;;14.70;99.90;;;;;;4994112;28;20029;-87
2023/08/27 09:39:12;;;;;;;0.10;0.10;;;14.90;99.90;;;;;;4994055;28;20030;-89
2023/08/27 09:41:43;;;;;;;0.13;0.10;;;15.00;99.90;;;;;;5012418;28;20026;-87
2023/08/27 09:44:10;;;;;;;0.10;0.10;;;15.00;99.90;;;;;;5012223;28;20048;-87
2023/08/27 09:46:36;;;;;;;0.10;0.10;;;15.00;99.90;;;;;;4993961;28;20041;-89
2023/08/27 09:49:04;;;;;;;1.05;0.17;;;15.00;99.90;;;;;;5013012;28;20037;-89
2023/08/27 09:51:31;;;;;;;1.85;0.75;;;15.00;99.90;;;;;;5011437;28;20027;-89
2023/08/27 09:53:57;;;;;;;2.40;0.38;;;15.10;99.90;;;;;;5011002;28;20112;-92
2023/08/27 09:56:25;;;;;;;0.20;0.10;;;15.20;99.90;;;;;;5011850;28;20033;-90
2023/08/27 09:58:55;;;;;;;1.92;0.20;;;15.30;99.90;;;;;;5012350;28;20098;-89
2023/08/27 10:01:32;;;;;;;0.00;0.00;;;15.30;99.90;;;;;;5013278;28;20045;-89
2023/08/27 10:04:03;;;;;;;0.75;0.10;;;15.30;99.90;;;;;;5004387;28;20034;-91
2023/08/27 10:06:37;;;;;;;0.20;0.10;;;15.30;99.90;;;;;;4999613;28;20029;-91
2023/08/27 10:09:03;;;;;;;2.50;0.15;;;15.30;99.90;;;;;;5000448;28;20220;-90
2023/08/27 10:11:30;;;;;;;0.38;0.00;;;15.30;99.90;;;;;;5004899;28;20025;-90
2023/08/27 10:13:57;;;;;;;0.28;0.17;;;15.30;99.90;;;;;;4995284;28;20042;-89
2023/08/27 10:16:23;;;;;;;0.35;0.20;;;15.40;99.90;;;;;;4997570;28;20025;-89
2023/08/27 10:18:49;;;;;;;0.22;0.20;;;15.40;99.90;;;;;;4998852;28;20032;-89
2023/08/27 10:21:15;;;;;;;1.27;0.30;;;15.40;99.90;;;;;;5009971;28;20026;-89
2023/08/27 10:23:42;;;;;;;0.65;0.10;;;15.40;99.90;;;;;;5016087;28;20382;-90
2023/08/27 10:26:09;;;;;;;1.52;0.25;;;15.40;99.90;;;;;;5015742;28;20089;-89
2023/08/27 10:28:35;;;;;;;0.35;0.20;;;15.50;99.90;;;;;;4997914;28;20072;-90
2023/08/27 10:31:01;;;;;;;2.42;0.30;;;15.50;99.90;;;;;;4998112;28;20037;-91
2023/08/27 10:33:27;;;;;;;1.48;0.30;;;15.40;99.90;;;;;;4998610;28;20487;-91
2023/08/27 10:35:54;;;;;;;1.38;0.20;;;15.40;99.90;;;;;;5015428;28;20026;-89
2023/08/27 10:38:25;;;;;;;6.38;0.93;;;15.40;99.90;;;;;;4998510;28;20033;-89
2023/08/27 10:40:51;;;;;;;2.63;0.28;;;15.40;99.90;;;;;;4998490;28;20022;-89
2023/08/27 10:43:19;;;;;;;0.32;0.20;;;15.50;99.90;;;;;;4997671;28;20022;-90
2023/08/27 10:45:46;;;;;;;0.38;0.20;;;15.50;99.90;;;;;;4997521;28;20053;-90
2023/08/27 10:48:17;;;;;;;0.77;0.10;;;15.60;99.90;;;;;;4997718;28;20392;-91
2023/08/27 10:51:01;;;;;;;1.67;0.40;;;15.60;99.90;;;;;;4997869;28;20018;-90
2023/08/27 10:53:39;;;;;;;4.20;0.40;;;15.60;99.90;;;;;;5008656;28;20029;-91
2023/08/27 10:56:29;;;;;;;1.48;0.30;;;15.60;99.90;;;;;;5012256;28;20026;-92
2023/08/27 10:59:11;;;;;;;0.25;0.20;;;15.60;99.90;;;;;;4996089;28;20053;-93
2023/08/27 11:02:07;;;;;;;2.67;0.38;;;15.60;99.90;;;;;;5014720;28;20049;-89
2023/08/27 11:04:43;;;;;;;7.90;0.50;;;15.50;99.90;;;;;;5012700;28;20026;-90
2023/08/27 11:07:11;;;;;;;1.55;0.35;;;15.50;99.90;;;;;;4993913;28;20030;-93
2023/08/27 11:09:47;;;;;;;3.53;0.40;;;15.60;99.90;;;;;;4994392;28;20035;-91
2023/08/27 11:12:22;;;;;;;0.52;0.30;;;15.70;99.90;;;;;;4995109;28;20034;-91
2023/08/27 11:14:48;;;;;;;0.85;0.85;;;15.90;99.90;;;;;;4994198;28;20105;-90
2023/08/27 11:17:22;;;;;;;2.22;0.50;;;16.10;99.90;;;;;;5013911;28;20373;-89
2023/08/27 11:19:48;;;;;;;3.38;0.68;;;16.20;99.90;;;;;;4996726;28;20556;-88
2023/08/27 11:22:18;;;;;;;3.13;0.80;;;16.40;99.90;;;;;;4996143;28;20033;-88
2023/08/27 11:24:52;;;;;;;7.13;0.70;;;16.30;99.90;;;;;;5007076;28;20019;-90
2023/08/27 11:27:23;;;;;;;1.25;0.50;;;16.20;99.90;;;;;;5010185;28;20062;-89
2023/08/27 11:29:51;;;;;;;1.17;0.52;;;16.10;99.90;;;;;;5005839;28;20090;-92
2023/08/27 11:32:19;;;;;;;1.55;0.60;;;16.00;99.90;;;;;;5001582;28;20030;-91
2023/08/27 11:34:48;;;;;;;2.20;0.63;;;16.00;99.90;;;;;;5004881;28;20193;-91
2023/08/27 11:37:14;;;;;;;2.13;0.80;;;15.80;99.90;;;;;;5001249;28;20079;-92
2023/08/27 11:39:40;;;;;;;7.05;1.67;;;15.80;99.90;;;;;;4999865;28;20026;-90
2023/08/27 11:42:12;;;;;;;3.03;0.73;;;15.80;99.90;;;;;;4998177;28;20449;-90
2023/08/27 11:44:52;;;;;;;2.00;1.02;;;15.80;99.90;;;;;;4987700;28;20510;-91
2023/08/27 11:47:22;;;;;;;2.92;0.95;;;15.80;99.90;;;;;;4997604;28;20525;-90
2023/08/27 11:49:50;;;;;;;1.75;0.50;;;15.80;99.90;;;;;;4998394;28;20536;-90
2023/08/27 11:52:16;;;;;;;2.40;0.52;;;15.80;99.90;;;;;;4997777;28;20032;-90
2023/08/27 11:54:46;;;;;;;2.50;0.60;;;15.90;99.90;;;;;;4996641;28;20030;-90
2023/08/27 11:57:14;;;;;;;1.00;0.30;;;15.90;99.90;;;;;;4996931;28;20026;-89
2023/08/27 11:59:40;;;;;;;0.90;0.47;;;16.00;99.90;;;;;;4996837;28;20072;-89
2023/08/27 12:02:07;;;;;;;4.13;0.50;;;16.00;99.90;;;;;;4997129;28;20033;-90
2023/08/27 12:04:33;;;;;;;1.60;0.60;;;16.00;99.90;;;;;;4997049;28;20022;-89
2023/08/27 12:07:05;;;;;;;1.25;0.55;;;16.10;99.90;;;;;;4996608;28;20038;-90
2023/08/27 12:09:35;;;;;;;1.70;0.60;;;16.10;99.90;;;;;;5014415;28;20026;-89
2023/08/27 12:12:03;;;;;;;4.65;1.48;;;16.10;99.90;;;;;;4989913;28;20036;-90
2023/08/27 12:14:29;;;;;;;3.10;0.60;;;16.00;99.90;;;;;;4997226;28;20034;-89
2023/08/27 12:17:03;;;;;;;4.10;0.65;;;15.90;99.90;;;;;;4999768;28;20338;-89
2023/08/27 12:19:29;;;;;;;2.05;0.82;;;15.80;99.90;;;;;;4997313;28;20612;-88
2023/08/27 12:21:58;;;;;;;1.73;0.43;;;15.70;99.90;;;;;;4996636;28;20137;-89
2023/08/27 12:24:27;;;;;;;1.23;0.30;;;15.70;99.90;;;;;;4996219;28;20076;-89
2023/08/27 12:26:53;;;;;;;2.05;0.63;;;15.60;99.90;;;;;;4996262;28;20414;-89
2023/08/27 12:29:18;;;;;;;4.05;0.63;;;15.60;99.90;;;;;;4996205;28;20128;-90
2023/08/27 12:31:45;;;;;;;3.40;0.70;;;15.60;99.90;;;;;;4995990;28;20026;-90
2023/08/27 12:34:11;;;;;;;1.80;0.68;;;15.70;99.90;;;;;;4996609;28;20038;-89
2023/08/27 12:36:37;;;;;;;3.80;0.90;;;15.80;99.90;;;;;;4996182;28;20033;-90
2023/08/27 12:39:03;;;;;;;2.92;0.70;;;15.90;99.90;;;;;;4996138;28;20053;-89
2023/08/27 12:41:29;;;;;;;2.13;0.80;;;16.00;99.90;;;;;;4996562;28;20056;-90
2023/08/27 12:43:55;;;;;;;2.40;0.50;;;15.90;99.90;;;;;;4982636;28;20015;-90
2023/08/27 12:46:23;;;;;;;4.80;0.80;;;15.90;99.90;;;;;;4990121;28;20169;-91
2023/08/27 12:48:49;;;;;;;1.55;0.63;;;15.80;99.90;;;;;;4996583;28;20022;-90
2023/08/27 12:51:15;;;;;;;1.27;0.70;;;15.70;99.90;;;;;;4995767;28;20034;-89